sensor_id;sensor_type;location;lat;lon;timestamp;pressure;altitude;pressure_sealevel;temperature;humidity
77171;BME280;66144;50.020;14.422;2023-04-03T00:01:43;99619.19;;;5.56;65.05
77171;BME280;66144;50.020;14.422;2023-04-03T00:04:09;99625.72;;;5.45;65.02
77171;BME280;66144;50.020;14.422;2023-04-03T00:06:35;99615.97;;;5.47;65.12
77171;BME280;66144;50.020;14.422;2023-04-03T00:09:00;99626.31;;;5.47;65.95
77171;BME280;66144;50.020;14.422;2023-04-03T00:11:25;99618.13;;;5.44;65.66
77171;BME280;66144;50.020;14.422;2023-04-03T00:13:51;99622.75;;;5.48;65.31
77171;BME280;66144;50.020;14.422;2023-04-03T00:16:17;99620.09;;;5.42;65.39
77171;BME280;66144;50.020;14.422;2023-04-03T00:18:42;99630.94;;;5.52;65.18
77171;BME280;66144;50.020;14.422;2023-04-03T00:21:10;99631.13;;;5.50;65.47
77171;BME280;66144;50.020;14.422;2023-04-03T00:23:37;99632.88;;;5.43;65.67
77171;BME280;66144;50.020;14.422;2023-04-03T00:26:02;99634.47;;;5.44;65.32
77171;BME280;66144;50.020;14.422;2023-04-03T00:28:27;99627.50;;;5.45;65.29
77171;BME280;66144;50.020;14.422;2023-04-03T00:30:53;99623.91;;;5.46;65.13
77171;BME280;66144;50.020;14.422;2023-04-03T00:33:18;99627.69;;;5.43;65.30
77171;BME280;66144;50.020;14.422;2023-04-03T00:35:47;99628.47;;;5.37;64.61
77171;BME280;66144;50.020;14.422;2023-04-03T00:38:14;99631.66;;;5.39;65.09
77171;BME280;66144;50.020;14.422;2023-04-03T00:40:43;99631.28;;;5.42;65.40
77171;BME280;66144;50.020;14.422;2023-04-03T00:45:41;99629.66;;;5.41;64.85
77171;BME280;66144;50.020;14.422;2023-04-03T00:48:10;99623.88;;;5.39;64.39
77171;BME280;66144;50.020;14.422;2023-04-03T00:50:41;99624.28;;;5.43;64.54
77171;BME280;66144;50.020;14.422;2023-04-03T00:53:11;99638.28;;;5.48;64.98
77171;BME280;66144;50.020;14.422;2023-04-03T00:55:38;99637.47;;;5.48;64.60
77171;BME280;66144;50.020;14.422;2023-04-03T00:58:05;99643.66;;;5.47;65.36
77171;BME280;66144;50.020;14.422;2023-04-03T01:00:32;99646.81;;;5.42;64.77
77171;BME280;66144;50.020;14.422;2023-04-03T01:02:57;99631.06;;;5.37;64.75
77171;BME280;66144;50.020;14.422;2023-04-03T01:05:22;99642.44;;;5.43;65.11
77171;BME280;66144;50.020;14.422;2023-04-03T01:07:48;99641.63;;;5.42;64.55
77171;BME280;66144;50.020;14.422;2023-04-03T01:10:16;99637.25;;;5.43;63.60
77171;BME280;66144;50.020;14.422;2023-04-03T01:12:44;99643.59;;;5.40;64.35
77171;BME280;66144;50.020;14.422;2023-04-03T01:15:13;99642.41;;;5.36;64.21
77171;BME280;66144;50.020;14.422;2023-04-03T01:17:56;99643.16;;;5.30;65.06
77171;BME280;66144;50.020;14.422;2023-04-03T01:25:21;99645.09;;;5.21;62.99
77171;BME280;66144;50.020;14.422;2023-04-03T01:27:46;99651.84;;;5.16;62.57
77171;BME280;66144;50.020;14.422;2023-04-03T01:30:12;99651.78;;;5.09;61.66
77171;BME280;66144;50.020;14.422;2023-04-03T01:32:39;99655.41;;;5.15;61.69
77171;BME280;66144;50.020;14.422;2023-04-03T01:35:06;99658.31;;;5.05;61.45
77171;BME280;66144;50.020;14.422;2023-04-03T01:37:32;99662.88;;;5.03;61.16
77171;BME280;66144;50.020;14.422;2023-04-03T01:39:57;99666.06;;;4.99;60.68
77171;BME280;66144;50.020;14.422;2023-04-03T01:42:22;99672.22;;;4.98;61.16
77171;BME280;66144;50.020;14.422;2023-04-03T01:44:47;99671.41;;;4.97;61.21
77171;BME280;66144;50.020;14.422;2023-04-03T01:47:13;99670.13;;;4.86;59.80
77171;BME280;66144;50.020;14.422;2023-04-03T01:49:38;99679.44;;;4.81;59.14
77171;BME280;66144;50.020;14.422;2023-04-03T01:52:03;99679.19;;;4.76;58.97
77171;BME280;66144;50.020;14.422;2023-04-03T01:54:29;99685.91;;;4.70;58.29
77171;BME280;66144;50.020;14.422;2023-04-03T01:56:54;99693.66;;;4.70;57.93
77171;BME280;66144;50.020;14.422;2023-04-03T01:59:19;99689.22;;;4.64;57.96
77171;BME280;66144;50.020;14.422;2023-04-03T02:01:45;99707.72;;;4.61;57.80
77171;BME280;66144;50.020;14.422;2023-04-03T02:04:11;99700.44;;;4.50;56.87
77171;BME280;66144;50.020;14.422;2023-04-03T02:06:37;99700.19;;;4.45;56.73
77171;BME280;66144;50.020;14.422;2023-04-03T02:09:03;99709.22;;;4.34;55.66
77171;BME280;66144;50.020;14.422;2023-04-03T02:11:28;99703.34;;;4.40;57.24
77171;BME280;66144;50.020;14.422;2023-04-03T02:13:53;99714.03;;;4.37;56.56
77171;BME280;66144;50.020;14.422;2023-04-03T02:16:19;99711.00;;;4.34;56.96
77171;BME280;66144;50.020;14.422;2023-04-03T02:18:44;99719.47;;;4.28;56.62
77171;BME280;66144;50.020;14.422;2023-04-03T02:21:09;99714.44;;;4.20;57.11
77171;BME280;66144;50.020;14.422;2023-04-03T02:23:35;99723.25;;;4.10;56.34
77171;BME280;66144;50.020;14.422;2023-04-03T02:26:13;99720.06;;;4.08;56.23
77171;BME280;66144;50.020;14.422;2023-04-03T02:28:39;99720.53;;;3.97;56.80
77171;BME280;66144;50.020;14.422;2023-04-03T02:31:06;99718.47;;;3.93;56.22
77171;BME280;66144;50.020;14.422;2023-04-03T02:33:32;99719.44;;;3.92;57.13
77171;BME280;66144;50.020;14.422;2023-04-03T02:35:57;99724.53;;;3.85;56.66
77171;BME280;66144;50.020;14.422;2023-04-03T02:38:24;99715.72;;;3.79;56.26
77171;BME280;66144;50.020;14.422;2023-04-03T02:40:49;99718.84;;;3.75;56.97
77171;BME280;66144;50.020;14.422;2023-04-03T02:43:16;99722.75;;;3.71;57.07
77171;BME280;66144;50.020;14.422;2023-04-03T02:45:42;99721.25;;;3.62;57.72
77171;BME280;66144;50.020;14.422;2023-04-03T02:48:07;99724.63;;;3.62;57.57
77171;BME280;66144;50.020;14.422;2023-04-03T02:50:32;99735.47;;;3.58;57.12
77171;BME280;66144;50.020;14.422;2023-04-03T02:52:58;99733.25;;;3.55;57.17
77171;BME280;66144;50.020;14.422;2023-04-03T02:55:23;99738.84;;;3.43;58.87
77171;BME280;66144;50.020;14.422;2023-04-03T02:57:48;99745.22;;;3.33;57.51
77171;BME280;66144;50.020;14.422;2023-04-03T03:00:14;99736.75;;;3.24;57.76
77171;BME280;66144;50.020;14.422;2023-04-03T03:02:40;99746.84;;;3.11;58.13
77171;BME280;66144;50.020;14.422;2023-04-03T03:05:06;99743.09;;;2.99;59.48
77171;BME280;66144;50.020;14.422;2023-04-03T03:07:31;99744.91;;;2.90;59.50
77171;BME280;66144;50.020;14.422;2023-04-03T03:09:57;99747.91;;;2.79;59.80
77171;BME280;66144;50.020;14.422;2023-04-03T03:12:22;99757.75;;;2.75;60.10
77171;BME280;66144;50.020;14.422;2023-04-03T03:14:50;99756.47;;;2.71;59.95
77171;BME280;66144;50.020;14.422;2023-04-03T03:17:16;99758.81;;;2.58;59.26
77171;BME280;66144;50.020;14.422;2023-04-03T03:19:42;99762.22;;;2.59;60.35
77171;BME280;66144;50.020;14.422;2023-04-03T03:22:08;99758.53;;;2.53;60.90
77171;BME280;66144;50.020;14.422;2023-04-03T03:24:33;99761.00;;;2.47;60.23
77171;BME280;66144;50.020;14.422;2023-04-03T03:26:58;99758.59;;;2.45;60.58
77171;BME280;66144;50.020;14.422;2023-04-03T03:29:24;99764.06;;;2.42;59.79
77171;BME280;66144;50.020;14.422;2023-04-03T03:31:49;99766.66;;;2.42;61.04
77171;BME280;66144;50.020;14.422;2023-04-03T03:34:15;99763.13;;;2.35;60.37
77171;BME280;66144;50.020;14.422;2023-04-03T03:36:40;99767.97;;;2.38;60.00
77171;BME280;66144;50.020;14.422;2023-04-03T03:39:06;99778.13;;;2.31;60.64
77171;BME280;66144;50.020;14.422;2023-04-03T03:41:31;99767.06;;;2.23;60.43
77171;BME280;66144;50.020;14.422;2023-04-03T03:43:57;99769.00;;;2.21;61.01
77171;BME280;66144;50.020;14.422;2023-04-03T03:46:22;99783.34;;;2.15;60.85
77171;BME280;66144;50.020;14.422;2023-04-03T03:48:48;99784.19;;;2.07;61.01
77171;BME280;66144;50.020;14.422;2023-04-03T03:51:13;99777.59;;;2.05;61.68
77171;BME280;66144;50.020;14.422;2023-04-03T03:53:38;99784.84;;;2.01;61.95
77171;BME280;66144;50.020;14.422;2023-04-03T03:56:04;99783.88;;;1.94;61.08
77171;BME280;66144;50.020;14.422;2023-04-03T03:58:31;99776.31;;;1.93;61.77
77171;BME280;66144;50.020;14.422;2023-04-03T04:01:00;99778.13;;;1.84;61.72
77171;BME280;66144;50.020;14.422;2023-04-03T04:03:25;99789.72;;;1.88;62.35
77171;BME280;66144;50.020;14.422;2023-04-03T04:05:51;99789.09;;;1.78;61.45
77171;BME280;66144;50.020;14.422;2023-04-03T04:08:16;99792.13;;;1.82;62.18
77171;BME280;66144;50.020;14.422;2023-04-03T04:10:42;99789.09;;;1.78;62.95
77171;BME280;66144;50.020;14.422;2023-04-03T04:13:07;99796.50;;;1.73;62.62
77171;BME280;66144;50.020;14.422;2023-04-03T04:15:32;99798.59;;;1.69;63.01
77171;BME280;66144;50.020;14.422;2023-04-03T04:17:58;99809.56;;;1.71;63.80
77171;BME280;66144;50.020;14.422;2023-04-03T04:20:23;99809.06;;;1.68;62.20
77171;BME280;66144;50.020;14.422;2023-04-03T04:22:48;99807.47;;;1.67;62.85
77171;BME280;66144;50.020;14.422;2023-04-03T04:25:14;99802.63;;;1.64;63.04
77171;BME280;66144;50.020;14.422;2023-04-03T04:27:39;99795.88;;;1.63;62.86
77171;BME280;66144;50.020;14.422;2023-04-03T04:30:05;99809.38;;;1.57;62.12
77171;BME280;66144;50.020;14.422;2023-04-03T04:32:31;99807.31;;;1.52;62.69
77171;BME280;66144;50.020;14.422;2023-04-03T04:34:56;99815.84;;;1.53;62.25
77171;BME280;66144;50.020;14.422;2023-04-03T04:37:21;99818.75;;;1.50;62.74
77171;BME280;66144;50.020;14.422;2023-04-03T04:39:47;99822.13;;;1.50;63.02
77171;BME280;66144;50.020;14.422;2023-04-03T04:42:12;99821.78;;;1.37;62.44
77171;BME280;66144;50.020;14.422;2023-04-03T04:44:40;99825.47;;;1.43;62.48
77171;BME280;66144;50.020;14.422;2023-04-03T04:47:06;99828.22;;;1.41;63.29
77171;BME280;66144;50.020;14.422;2023-04-03T04:49:31;99828.06;;;1.43;63.49
77171;BME280;66144;50.020;14.422;2023-04-03T04:51:57;99827.25;;;1.42;63.72
77171;BME280;66144;50.020;14.422;2023-04-03T04:54:22;99827.72;;;1.37;63.20
77171;BME280;66144;50.020;14.422;2023-04-03T04:56:47;99834.16;;;1.42;63.96
77171;BME280;66144;50.020;14.422;2023-04-03T04:59:13;99834.16;;;1.42;62.29
77171;BME280;66144;50.020;14.422;2023-04-03T05:01:38;99834.97;;;1.42;63.09
77171;BME280;66144;50.020;14.422;2023-04-03T05:04:04;99839.66;;;1.47;63.61
77171;BME280;66144;50.020;14.422;2023-04-03T05:06:29;99837.38;;;1.44;63.49
77171;BME280;66144;50.020;14.422;2023-04-03T05:08:57;99837.06;;;1.47;63.38
77171;BME280;66144;50.020;14.422;2023-04-03T05:11:22;99838.34;;;1.43;63.72
77171;BME280;66144;50.020;14.422;2023-04-03T05:13:47;99835.63;;;1.44;62.75
77171;BME280;66144;50.020;14.422;2023-04-03T05:16:13;99837.69;;;1.41;62.47
77171;BME280;66144;50.020;14.422;2023-04-03T05:18:38;99839.94;;;1.35;63.19
77171;BME280;66144;50.020;14.422;2023-04-03T05:21:04;99840.59;;;1.46;62.98
77171;BME280;66144;50.020;14.422;2023-04-03T05:23:29;99848.16;;;1.47;63.52
77171;BME280;66144;50.020;14.422;2023-04-03T05:25:55;99847.19;;;1.40;63.28
77171;BME280;66144;50.020;14.422;2023-04-03T05:28:20;99840.91;;;1.43;62.27
77171;BME280;66144;50.020;14.422;2023-04-03T05:30:52;99848.31;;;1.37;62.80
77171;BME280;66144;50.020;14.422;2023-04-03T05:33:19;99845.59;;;1.47;62.34
77171;BME280;66144;50.020;14.422;2023-04-03T05:35:44;99844.00;;;1.46;62.63
77171;BME280;66144;50.020;14.422;2023-04-03T05:38:10;99860.22;;;1.47;62.42
77171;BME280;66144;50.020;14.422;2023-04-03T05:40:35;99855.41;;;1.44;62.54
77171;BME280;66144;50.020;14.422;2023-04-03T05:43:00;99863.47;;;1.49;62.34
77171;BME280;66144;50.020;14.422;2023-04-03T05:45:26;99859.59;;;1.45;63.12
77171;BME280;66144;50.020;14.422;2023-04-03T05:47:51;99870.06;;;1.51;63.47
77171;BME280;66144;50.020;14.422;2023-04-03T05:50:17;99870.34;;;1.56;62.81
77171;BME280;66144;50.020;14.422;2023-04-03T05:52:44;99872.78;;;1.66;62.48
77171;BME280;66144;50.020;14.422;2023-04-03T05:55:10;99876.81;;;1.68;62.49
77171;BME280;66144;50.020;14.422;2023-04-03T05:57:36;99873.75;;;1.73;62.17
77171;BME280;66144;50.020;14.422;2023-04-03T06:00:06;99873.25;;;1.78;62.19
77171;BME280;66144;50.020;14.422;2023-04-03T06:02:31;99873.44;;;1.92;62.48
77171;BME280;66144;50.020;14.422;2023-04-03T06:04:57;99877.78;;;1.92;62.31
77171;BME280;66144;50.020;14.422;2023-04-03T06:07:23;99881.47;;;1.89;62.52
77171;BME280;66144;50.020;14.422;2023-04-03T06:09:52;99884.66;;;2.07;62.69
77171;BME280;66144;50.020;14.422;2023-04-03T06:12:19;99879.31;;;2.25;60.80
77171;BME280;66144;50.020;14.422;2023-04-03T06:14:45;99877.81;;;2.47;61.49
77171;BME280;66144;50.020;14.422;2023-04-03T06:17:10;99891.16;;;2.51;60.59
77171;BME280;66144;50.020;14.422;2023-04-03T06:19:37;99892.22;;;2.72;59.16
77171;BME280;66144;50.020;14.422;2023-04-03T06:22:02;99894.28;;;2.77;59.13
77171;BME280;66144;50.020;14.422;2023-04-03T06:24:28;99898.91;;;2.90;59.04
77171;BME280;66144;50.020;14.422;2023-04-03T06:26:54;99892.81;;;2.83;58.96
77171;BME280;66144;50.020;14.422;2023-04-03T06:29:20;99892.28;;;2.95;59.62
77171;BME280;66144;50.020;14.422;2023-04-03T06:31:45;99899.72;;;2.90;58.96
77171;BME280;66144;50.020;14.422;2023-04-03T06:34:11;99891.28;;;3.04;58.57
77171;BME280;66144;50.020;14.422;2023-04-03T06:36:37;99902.03;;;3.08;58.37
77171;BME280;66144;50.020;14.422;2023-04-03T06:39:03;99899.09;;;3.19;58.23
77171;BME280;66144;50.020;14.422;2023-04-03T06:41:29;99909.72;;;3.24;57.83
77171;BME280;66144;50.020;14.422;2023-04-03T06:43:55;99904.38;;;3.48;57.43
77171;BME280;66144;50.020;14.422;2023-04-03T06:46:25;99903.22;;;3.74;55.86
77171;BME280;66144;50.020;14.422;2023-04-03T06:48:51;99907.75;;;3.95;56.13
77171;BME280;66144;50.020;14.422;2023-04-03T06:51:22;99906.13;;;4.61;55.13
77171;BME280;66144;50.020;14.422;2023-04-03T06:53:50;99908.59;;;4.98;54.26
77171;BME280;66144;50.020;14.422;2023-04-03T06:56:16;99891.91;;;5.22;53.37
77171;BME280;66144;50.020;14.422;2023-04-03T06:58:42;99901.81;;;5.33;52.15
77171;BME280;66144;50.020;14.422;2023-04-03T07:01:09;99905.28;;;5.26;52.71
77171;BME280;66144;50.020;14.422;2023-04-03T07:03:35;99909.22;;;5.58;52.19
77171;BME280;66144;50.020;14.422;2023-04-03T07:06:02;99905.69;;;5.08;51.84
77171;BME280;66144;50.020;14.422;2023-04-03T07:08:28;99914.97;;;5.17;52.45
77171;BME280;66144;50.020;14.422;2023-04-03T07:10:53;99915.31;;;5.50;51.14
77171;BME280;66144;50.020;14.422;2023-04-03T07:13:19;99911.94;;;5.92;49.95
77171;BME280;66144;50.020;14.422;2023-04-03T07:15:44;99905.13;;;6.47;48.84
77171;BME280;66144;50.020;14.422;2023-04-03T07:18:10;99909.41;;;7.15;48.10
77171;BME280;66144;50.020;14.422;2023-04-03T07:20:35;99908.69;;;7.54;47.77
77171;BME280;66144;50.020;14.422;2023-04-03T07:23:01;99907.53;;;7.90;44.62
77171;BME280;66144;50.020;14.422;2023-04-03T07:25:27;99897.31;;;8.41;43.85
77171;BME280;66144;50.020;14.422;2023-04-03T07:27:53;99900.13;;;8.46;44.60
77171;BME280;66144;50.020;14.422;2023-04-03T07:30:19;99905.22;;;8.79;42.47
77171;BME280;66144;50.020;14.422;2023-04-03T07:32:45;99909.50;;;9.05;41.12
77171;BME280;66144;50.020;14.422;2023-04-03T07:35:11;99912.06;;;8.67;41.58
77171;BME280;66144;50.020;14.422;2023-04-03T07:37:37;99908.78;;;9.29;41.06
77171;BME280;66144;50.020;14.422;2023-04-03T07:40:02;99907.34;;;9.65;40.16
77171;BME280;66144;50.020;14.422;2023-04-03T07:42:29;99907.94;;;10.42;38.68
77171;BME280;66144;50.020;14.422;2023-04-03T07:44:54;99914.34;;;10.21;39.09
77171;BME280;66144;50.020;14.422;2023-04-03T07:47:20;99918.66;;;10.09;38.49
77171;BME280;66144;50.020;14.422;2023-04-03T07:49:46;99910.06;;;10.69;37.80
77171;BME280;66144;50.020;14.422;2023-04-03T07:52:12;99908.84;;;11.02;37.41
77171;BME280;66144;50.020;14.422;2023-04-03T07:54:38;99904.16;;;10.92;36.76
77171;BME280;66144;50.020;14.422;2023-04-03T07:57:03;99897.44;;;11.15;37.06
77171;BME280;66144;50.020;14.422;2023-04-03T07:59:29;99905.78;;;11.53;36.74
77171;BME280;66144;50.020;14.422;2023-04-03T08:01:54;99907.13;;;12.09;35.77
77171;BME280;66144;50.020;14.422;2023-04-03T08:04:20;99902.34;;;12.06;35.04
77171;BME280;66144;50.020;14.422;2023-04-03T08:06:45;99907.00;;;11.51;36.35
77171;BME280;66144;50.020;14.422;2023-04-03T08:09:11;99911.75;;;11.84;36.84
77171;BME280;66144;50.020;14.422;2023-04-03T08:11:39;99914.06;;;12.27;35.23
77171;BME280;66144;50.020;14.422;2023-04-03T08:14:04;99915.88;;;12.50;33.49
77171;BME280;66144;50.020;14.422;2023-04-03T08:16:29;99913.81;;;12.52;33.56
77171;BME280;66144;50.020;14.422;2023-04-03T08:18:55;99918.28;;;12.16;33.56
77171;BME280;66144;50.020;14.422;2023-04-03T08:21:21;99915.28;;;12.59;33.44
77171;BME280;66144;50.020;14.422;2023-04-03T08:23:49;99914.94;;;12.56;33.71
77171;BME280;66144;50.020;14.422;2023-04-03T08:26:18;99918.72;;;12.48;33.41
77171;BME280;66144;50.020;14.422;2023-04-03T08:28:43;99917.97;;;11.71;34.53
77171;BME280;66144;50.020;14.422;2023-04-03T08:31:12;99923.00;;;11.72;34.41
77171;BME280;66144;50.020;14.422;2023-04-03T08:33:39;99923.53;;;11.74;34.40
77171;BME280;66144;50.020;14.422;2023-04-03T08:36:07;99915.94;;;11.73;35.44
77171;BME280;66144;50.020;14.422;2023-04-03T08:38:33;99921.22;;;10.58;35.30
77171;BME280;66144;50.020;14.422;2023-04-03T08:41:06;99919.50;;;10.52;36.19
77171;BME280;66144;50.020;14.422;2023-04-03T08:51:54;99931.06;;;9.88;38.34
77171;BME280;66144;50.020;14.422;2023-04-03T08:57:06;99930.03;;;10.21;37.47
77171;BME280;66144;50.020;14.422;2023-04-03T08:59:37;99936.50;;;10.12;38.15
77171;BME280;66144;50.020;14.422;2023-04-03T09:02:18;99923.19;;;9.95;37.50
77171;BME280;66144;50.020;14.422;2023-04-03T09:04:47;99920.69;;;9.50;37.58
77171;BME280;66144;50.020;14.422;2023-04-03T09:07:29;99934.34;;;9.46;38.42
77171;BME280;66144;50.020;14.422;2023-04-03T09:09:59;99941.03;;;8.90;40.42
77171;BME280;66144;50.020;14.422;2023-04-03T09:12:27;99931.59;;;9.03;40.66
77171;BME280;66144;50.020;14.422;2023-04-03T09:15:17;99934.19;;;9.03;40.52
77171;BME280;66144;50.020;14.422;2023-04-03T09:23:20;99950.94;;;8.49;39.55
77171;BME280;66144;50.020;14.422;2023-04-03T09:25:49;99950.59;;;8.45;39.11
77171;BME280;66144;50.020;14.422;2023-04-03T09:28:16;99955.38;;;8.15;38.83
77171;BME280;66144;50.020;14.422;2023-04-03T09:30:41;99957.97;;;8.22;40.34
77171;BME280;66144;50.020;14.422;2023-04-03T09:33:07;99957.19;;;7.88;39.96
77171;BME280;66144;50.020;14.422;2023-04-03T09:35:36;99957.94;;;7.62;40.12
77171;BME280;66144;50.020;14.422;2023-04-03T09:40:37;99957.84;;;7.36;40.96
77171;BME280;66144;50.020;14.422;2023-04-03T09:43:24;99961.78;;;7.19;41.44
77171;BME280;66144;50.020;14.422;2023-04-03T09:45:51;99954.44;;;7.29;42.31
77171;BME280;66144;50.020;14.422;2023-04-03T09:48:20;99964.25;;;7.40;41.89
77171;BME280;66144;50.020;14.422;2023-04-03T09:56:04;99952.75;;;7.76;41.37
77171;BME280;66144;50.020;14.422;2023-04-03T09:58:33;99950.75;;;7.84;40.81
77171;BME280;66144;50.020;14.422;2023-04-03T10:01:02;99955.53;;;7.68;40.14
77171;BME280;66144;50.020;14.422;2023-04-03T10:03:34;99951.97;;;7.95;39.48
77171;BME280;66144;50.020;14.422;2023-04-03T10:06:21;99949.56;;;8.33;40.25
77171;BME280;66144;50.020;14.422;2023-04-03T10:08:59;99953.19;;;8.32;39.19
77171;BME280;66144;50.020;14.422;2023-04-03T10:11:26;99954.34;;;8.29;37.96
77171;BME280;66144;50.020;14.422;2023-04-03T10:13:56;99955.59;;;8.07;38.76
77171;BME280;66144;50.020;14.422;2023-04-03T10:16:34;99951.53;;;7.91;38.99
77171;BME280;66144;50.020;14.422;2023-04-03T10:21:58;99933.56;;;8.43;39.52
77171;BME280;66144;50.020;14.422;2023-04-03T10:24:49;99929.25;;;9.26;38.75
77171;BME280;66144;50.020;14.422;2023-04-03T10:30:27;99944.66;;;8.89;37.50
77171;BME280;66144;50.020;14.422;2023-04-03T10:32:58;99943.72;;;8.64;39.79
77171;BME280;66144;50.020;14.422;2023-04-03T10:35:42;99946.38;;;8.24;38.91
77171;BME280;66144;50.020;14.422;2023-04-03T10:40:57;99937.72;;;8.50;41.33
77171;BME280;66144;50.020;14.422;2023-04-03T10:46:27;99932.00;;;8.99;39.35
77171;BME280;66144;50.020;14.422;2023-04-03T10:51:48;99940.38;;;8.37;38.68
77171;BME280;66144;50.020;14.422;2023-04-03T10:54:20;99929.91;;;8.30;39.40
77171;BME280;66144;50.020;14.422;2023-04-03T10:57:05;99929.97;;;8.04;40.38
77171;BME280;66144;50.020;14.422;2023-04-03T11:02:18;99934.75;;;7.81;39.65
77171;BME280;66144;50.020;14.422;2023-04-03T11:04:46;99931.94;;;8.09;40.49
77171;BME280;66144;50.020;14.422;2023-04-03T11:09:44;99913.03;;;9.24;36.66
77171;BME280;66144;50.020;14.422;2023-04-03T11:12:23;99920.16;;;9.04;37.11
77171;BME280;66144;50.020;14.422;2023-04-03T11:14:51;99930.53;;;8.59;37.93
77171;BME280;66144;50.020;14.422;2023-04-03T11:24:54;99906.91;;;8.47;40.34
77171;BME280;66144;50.020;14.422;2023-04-03T11:27:22;99920.31;;;8.31;39.07
77171;BME280;66144;50.020;14.422;2023-04-03T11:29:50;99923.53;;;8.46;39.42
77171;BME280;66144;50.020;14.422;2023-04-03T11:32:34;99889.91;;;8.12;39.50
77171;BME280;66144;50.020;14.422;2023-04-03T11:35:08;99919.34;;;8.19;39.09
77171;BME280;66144;50.020;14.422;2023-04-03T11:37:38;99921.75;;;8.07;39.74
77171;BME280;66144;50.020;14.422;2023-04-03T11:40:19;99912.94;;;8.21;40.08
77171;BME280;66144;50.020;14.422;2023-04-03T11:45:49;99904.94;;;8.23;39.86
77171;BME280;66144;50.020;14.422;2023-04-03T11:50:46;99900.13;;;7.80;39.48
77171;BME280;66144;50.020;14.422;2023-04-03T12:01:04;99886.47;;;8.51;38.46
77171;BME280;66144;50.020;14.422;2023-04-03T12:03:33;99889.81;;;8.71;38.10
77171;BME280;66144;50.020;14.422;2023-04-03T12:13:34;99878.69;;;8.44;37.93
77171;BME280;66144;50.020;14.422;2023-04-03T12:16:00;99879.91;;;8.35;38.46
77171;BME280;66144;50.020;14.422;2023-04-03T12:20:58;99882.91;;;8.12;38.35
77171;BME280;66144;50.020;14.422;2023-04-03T12:23:32;99878.34;;;7.88;39.06
77171;BME280;66144;50.020;14.422;2023-04-03T12:26:05;99879.94;;;8.02;38.14
77171;BME280;66144;50.020;14.422;2023-04-03T12:28:39;99882.28;;;8.30;40.14
77171;BME280;66144;50.020;14.422;2023-04-03T12:31:05;99875.84;;;8.52;38.02
77171;BME280;66144;50.020;14.422;2023-04-03T12:36:12;99880.31;;;8.12;37.16
77171;BME280;66144;50.020;14.422;2023-04-03T12:41:36;99880.75;;;7.83;38.69
77171;BME280;66144;50.020;14.422;2023-04-03T12:44:21;99872.69;;;7.51;37.47
77171;BME280;66144;50.020;14.422;2023-04-03T12:46:52;99869.31;;;7.97;36.52
77171;BME280;66144;50.020;14.422;2023-04-03T12:49:38;99855.88;;;8.33;37.43
77171;BME280;66144;50.020;14.422;2023-04-03T12:52:15;99845.41;;;8.53;36.91
77171;BME280;66144;50.020;14.422;2023-04-03T12:54:42;99864.06;;;8.43;35.67
77171;BME280;66144;50.020;14.422;2023-04-03T12:57:19;99866.69;;;8.23;35.31
77171;BME280;66144;50.020;14.422;2023-04-03T12:59:44;99862.09;;;8.25;35.40
77171;BME280;66144;50.020;14.422;2023-04-03T13:02:29;99863.06;;;8.44;37.33
77171;BME280;66144;50.020;14.422;2023-04-03T13:04:58;99859.66;;;8.30;37.67
77171;BME280;66144;50.020;14.422;2023-04-03T13:07:30;99863.69;;;8.26;38.31
77171;BME280;66144;50.020;14.422;2023-04-03T13:12:26;99867.94;;;7.81;38.50
77171;BME280;66144;50.020;14.422;2023-04-03T13:14:55;99873.53;;;7.78;40.15
77171;BME280;66144;50.020;14.422;2023-04-03T13:17:21;99873.94;;;7.75;38.71
77171;BME280;66144;50.020;14.422;2023-04-03T13:19:46;99871.94;;;7.84;38.67
77171;BME280;66144;50.020;14.422;2023-04-03T13:24:54;99863.28;;;8.10;38.94
77171;BME280;66144;50.020;14.422;2023-04-03T13:27:22;99864.34;;;7.82;37.85
77171;BME280;66144;50.020;14.422;2023-04-03T13:29:50;99862.34;;;7.84;38.36
77171;BME280;66144;50.020;14.422;2023-04-03T13:32:20;99849.13;;;7.53;38.35
77171;BME280;66144;50.020;14.422;2023-04-03T13:34:46;99855.53;;;7.44;37.80
77171;BME280;66144;50.020;14.422;2023-04-03T13:37:27;99855.50;;;7.37;38.30
77171;BME280;66144;50.020;14.422;2023-04-03T13:42:37;99855.13;;;7.53;37.68
77171;BME280;66144;50.020;14.422;2023-04-03T13:45:10;99863.13;;;7.58;37.62
77171;BME280;66144;50.020;14.422;2023-04-03T13:47:41;99860.31;;;7.40;36.59
77171;BME280;66144;50.020;14.422;2023-04-03T14:05:43;99841.88;;;7.15;39.45
77171;BME280;66144;50.020;14.422;2023-04-03T14:08:10;99837.91;;;7.26;39.13
77171;BME280;66144;50.020;14.422;2023-04-03T14:10:35;99848.72;;;7.43;40.42
77171;BME280;66144;50.020;14.422;2023-04-03T14:13:01;99832.72;;;7.26;38.39
77171;BME280;66144;50.020;14.422;2023-04-03T14:15:28;99842.72;;;7.29;37.84
77171;BME280;66144;50.020;14.422;2023-04-03T14:17:56;99842.81;;;6.94;37.30
77171;BME280;66144;50.020;14.422;2023-04-03T14:20:25;99856.47;;;7.10;39.01
77171;BME280;66144;50.020;14.422;2023-04-03T14:22:51;99847.88;;;7.16;37.12
77171;BME280;66144;50.020;14.422;2023-04-03T14:25:17;99842.25;;;6.99;37.74
77171;BME280;66144;50.020;14.422;2023-04-03T14:27:46;99845.47;;;7.08;36.99
77171;BME280;66144;50.020;14.422;2023-04-03T14:30:25;99847.25;;;7.01;38.69
77171;BME280;66144;50.020;14.422;2023-04-03T14:32:51;99839.06;;;7.04;37.86
77171;BME280;66144;50.020;14.422;2023-04-03T14:35:17;99847.25;;;7.14;38.38
77171;BME280;66144;50.020;14.422;2023-04-03T14:37:44;99852.03;;;7.04;38.01
77171;BME280;66144;50.020;14.422;2023-04-03T14:40:15;99855.22;;;6.99;38.42
77171;BME280;66144;50.020;14.422;2023-04-03T14:42:40;99849.03;;;7.00;37.99
77171;BME280;66144;50.020;14.422;2023-04-03T14:45:09;99853.22;;;7.01;37.48
77171;BME280;66144;50.020;14.422;2023-04-03T14:47:39;99854.41;;;6.92;37.94
77171;BME280;66144;50.020;14.422;2023-04-03T14:50:07;99848.00;;;6.88;38.11
77171;BME280;66144;50.020;14.422;2023-04-03T14:52:35;99844.22;;;6.90;37.41
77171;BME280;66144;50.020;14.422;2023-04-03T14:55:04;99858.97;;;6.83;36.70